sensor_id;sensor_type;location;lat;lon;timestamp;noise_LAeq;noise_LA_min;noise_LA_max;noise_LA01;noise_LA95
56099;Laerm;44276;49.534;6.378;2022-12-29T00:01:17;49.64;40.98;64.22;;
56099;Laerm;44276;49.534;6.378;2022-12-29T00:03:46;47.19;41.14;64.50;;
56099;Laerm;44276;49.534;6.378;2022-12-29T00:06:14;49.58;41.22;64.13;;
56099;Laerm;44276;49.534;6.378;2022-12-29T00:08:43;45.59;41.14;60.24;;
56099;Laerm;44276;49.534;6.378;2022-12-29T00:11:15;44.92;40.98;58.82;;
56099;Laerm;44276;49.534;6.378;2022-12-29T00:13:44;46.32;41.14;61.16;;
56099;Laerm;44276;49.534;6.378;2022-12-29T00:16:31;46.26;41.30;61.38;;
56099;Laerm;44276;49.534;6.378;2022-12-29T00:19:00;45.25;41.30;60.14;;
56099;Laerm;44276;49.534;6.378;2022-12-29T00:21:29;45.25;41.30;60.28;;
56099;Laerm;44276;49.534;6.378;2022-12-29T00:24:18;44.31;41.06;56.89;;
56099;Laerm;44276;49.534;6.378;2022-12-29T00:27:12;43.58;41.38;55.11;;
56099;Laerm;44276;49.534;6.378;2022-12-29T00:29:59;43.42;41.46;54.41;;
56099;Laerm;44276;49.534;6.378;2022-12-29T00:32:44;43.21;41.38;51.20;;
56099;Laerm;44276;49.534;6.378;2022-12-29T00:35:36;43.07;41.46;50.74;;
56099;Laerm;44276;49.534;6.378;2022-12-29T00:38:07;43.73;41.30;56.20;;
56099;Laerm;44276;49.534;6.378;2022-12-29T00:40:53;43.85;41.14;54.41;;
56099;Laerm;44276;49.534;6.378;2022-12-29T00:43:41;43.79;41.53;58.85;;
56099;Laerm;44276;49.534;6.378;2022-12-29T00:46:26;44.11;41.46;55.85;;
56099;Laerm;44276;49.534;6.378;2022-12-29T00:48:55;43.73;41.30;51.09;;
56099;Laerm;44276;49.534;6.378;2022-12-29T00:51:41;43.75;41.61;54.34;;
56099;Laerm;44276;49.534;6.378;2022-12-29T00:54:10;43.00;41.38;49.30;;
56099;Laerm;44276;49.534;6.378;2022-12-29T00:56:38;43.48;41.30;51.82;;
56099;Laerm;44276;49.534;6.378;2022-12-29T00:59:10;42.98;41.38;51.14;;
56099;Laerm;44276;49.534;6.378;2022-12-29T01:01:39;43.13;41.46;50.87;;
56099;Laerm;44276;49.534;6.378;2022-12-29T01:04:09;43.60;41.46;51.54;;
56099;Laerm;44276;49.534;6.378;2022-12-29T01:06:39;43.44;41.75;51.24;;
56099;Laerm;44276;49.534;6.378;2022-12-29T01:09:08;43.12;41.38;49.66;;
56099;Laerm;44276;49.534;6.378;2022-12-29T01:11:54;43.22;41.46;49.81;;
56099;Laerm;44276;49.534;6.378;2022-12-29T01:14:24;42.94;41.61;45.54;;
56099;Laerm;44276;49.534;6.378;2022-12-29T01:16:53;43.13;41.75;47.40;;
56099;Laerm;44276;49.534;6.378;2022-12-29T01:19:22;43.11;41.61;47.12;;
56099;Laerm;44276;49.534;6.378;2022-12-29T01:21:50;43.29;41.68;52.68;;
56099;Laerm;44276;49.534;6.378;2022-12-29T01:24:21;43.27;41.89;45.99;;
56099;Laerm;44276;49.534;6.378;2022-12-29T01:26:49;43.18;41.61;48.13;;
56099;Laerm;44276;49.534;6.378;2022-12-29T01:29:18;43.11;41.68;48.71;;
56099;Laerm;44276;49.534;6.378;2022-12-29T01:31:47;43.46;41.75;49.73;;
56099;Laerm;44276;49.534;6.378;2022-12-29T01:34:17;43.23;41.82;48.64;;
56099;Laerm;44276;49.534;6.378;2022-12-29T01:36:45;43.37;41.96;48.36;;
56099;Laerm;44276;49.534;6.378;2022-12-29T01:39:13;43.41;42.03;49.55;;
56099;Laerm;44276;49.534;6.378;2022-12-29T01:41:42;43.29;41.89;47.36;;
56099;Laerm;44276;49.534;6.378;2022-12-29T01:44:49;43.28;42.03;46.20;;
56099;Laerm;44276;49.534;6.378;2022-12-29T01:47:34;43.20;41.96;50.01;;
56099;Laerm;44276;49.534;6.378;2022-12-29T01:50:08;43.29;42.16;48.28;;
56099;Laerm;44276;49.534;6.378;2022-12-29T01:52:42;43.22;41.96;45.30;;
56099;Laerm;44276;49.534;6.378;2022-12-29T01:55:12;43.24;41.89;48.92;;
56099;Laerm;44276;49.534;6.378;2022-12-29T01:57:46;43.19;41.89;45.54;;
56099;Laerm;44276;49.534;6.378;2022-12-29T02:00:16;43.47;42.09;48.83;;
56099;Laerm;44276;49.534;6.378;2022-12-29T02:02:51;43.31;41.96;50.98;;
56099;Laerm;44276;49.534;6.378;2022-12-29T02:05:27;43.32;41.82;46.48;;
56099;Laerm;44276;49.534;6.378;2022-12-29T02:07:56;43.28;42.16;45.11;;
56099;Laerm;44276;49.534;6.378;2022-12-29T02:10:28;43.29;41.96;45.42;;
56099;Laerm;44276;49.534;6.378;2022-12-29T02:12:57;43.30;42.03;45.11;;
56099;Laerm;44276;49.534;6.378;2022-12-29T02:15:37;43.37;42.09;48.34;;
56099;Laerm;44276;49.534;6.378;2022-12-29T02:18:27;43.51;42.16;48.76;;
56099;Laerm;44276;49.534;6.378;2022-12-29T02:21:37;43.40;42.09;47.65;;
56099;Laerm;44276;49.534;6.378;2022-12-29T02:24:33;43.47;42.16;48.18;;
56099;Laerm;44276;49.534;6.378;2022-12-29T02:27:35;43.38;42.16;46.05;;
56099;Laerm;44276;49.534;6.378;2022-12-29T02:30:28;43.43;42.03;45.48;;
56099;Laerm;44276;49.534;6.378;2022-12-29T02:33:04;43.41;42.16;44.87;;
56099;Laerm;44276;49.534;6.378;2022-12-29T02:35:44;43.40;42.29;44.58;;
56099;Laerm;44276;49.534;6.378;2022-12-29T02:38:29;43.41;42.35;44.76;;
56099;Laerm;44276;49.534;6.378;2022-12-29T02:41:07;43.43;42.35;44.51;;
56099;Laerm;44276;49.534;6.378;2022-12-29T02:43:50;43.46;42.09;45.80;;
56099;Laerm;44276;49.534;6.378;2022-12-29T02:46:35;43.48;42.16;44.87;;
56099;Laerm;44276;49.534;6.378;2022-12-29T02:49:10;43.48;42.09;44.62;;
56099;Laerm;44276;49.534;6.378;2022-12-29T02:51:51;43.49;42.35;44.45;;
56099;Laerm;44276;49.534;6.378;2022-12-29T02:54:21;43.51;42.41;44.62;;
56099;Laerm;44276;49.534;6.378;2022-12-29T02:57:11;43.52;42.29;44.62;;
56099;Laerm;44276;49.534;6.378;2022-12-29T02:59:43;43.57;42.22;45.45;;
56099;Laerm;44276;49.534;6.378;2022-12-29T03:02:37;43.79;42.36;48.49;;
56099;Laerm;44276;49.534;6.378;2022-12-29T03:05:25;43.58;42.22;44.72;;
56099;Laerm;44276;49.534;6.378;2022-12-29T03:08:06;43.65;42.35;46.05;;
56099;Laerm;44276;49.534;6.378;2022-12-29T03:10:50;43.65;42.35;45.60;;
56099;Laerm;44276;49.534;6.378;2022-12-29T03:13:28;43.68;42.53;45.27;;
56099;Laerm;44276;49.534;6.378;2022-12-29T03:16:24;43.69;42.35;47.18;;
56099;Laerm;44276;49.534;6.378;2022-12-29T03:19:06;43.65;42.65;44.87;;
56099;Laerm;44276;49.534;6.378;2022-12-29T03:21:40;43.81;42.35;49.49;;
56099;Laerm;44276;49.534;6.378;2022-12-29T03:24:31;43.79;42.41;49.41;;
56099;Laerm;44276;49.534;6.378;2022-12-29T03:27:04;43.95;42.53;48.64;;
56099;Laerm;44276;49.534;6.378;2022-12-29T03:29:40;43.78;42.41;46.13;;
56099;Laerm;44276;49.534;6.378;2022-12-29T03:32:13;43.72;42.53;45.99;;
56099;Laerm;44276;49.534;6.378;2022-12-29T03:34:46;43.84;42.59;46.64;;
56099;Laerm;44276;49.534;6.378;2022-12-29T03:37:20;44.02;42.35;55.36;;
56099;Laerm;44276;49.534;6.378;2022-12-29T03:39:50;43.82;42.65;47.44;;
56099;Laerm;44276;49.534;6.378;2022-12-29T03:42:22;43.80;42.53;49.13;;
56099;Laerm;44276;49.534;6.378;2022-12-29T03:44:56;43.83;42.41;48.23;;
56099;Laerm;44276;49.534;6.378;2022-12-29T03:47:25;43.72;42.53;48.45;;
56099;Laerm;44276;49.534;6.378;2022-12-29T03:49:55;43.72;42.41;47.16;;
56099;Laerm;44276;49.534;6.378;2022-12-29T03:52:23;43.72;42.41;48.83;;
56099;Laerm;44276;49.534;6.378;2022-12-29T03:54:51;43.71;42.41;46.33;;
56099;Laerm;44276;49.534;6.378;2022-12-29T03:57:19;43.80;42.47;52.12;;
56099;Laerm;44276;49.534;6.378;2022-12-29T03:59:47;43.83;42.41;50.50;;
56099;Laerm;44276;49.534;6.378;2022-12-29T04:02:16;43.69;42.29;46.69;;
56099;Laerm;44276;49.534;6.378;2022-12-29T04:04:44;43.61;42.41;45.77;;
56099;Laerm;44276;49.534;6.378;2022-12-29T04:07:14;43.59;42.16;46.43;;
56099;Laerm;44276;49.534;6.378;2022-12-29T04:09:43;43.62;42.41;47.34;;
56099;Laerm;44276;49.534;6.378;2022-12-29T04:12:12;43.66;42.41;47.88;;
56099;Laerm;44276;49.534;6.378;2022-12-29T04:14:41;43.69;42.29;47.84;;
56099;Laerm;44276;49.534;6.378;2022-12-29T04:17:09;44.28;42.29;55.17;;
56099;Laerm;44276;49.534;6.378;2022-12-29T04:19:38;44.36;42.47;55.26;;
56099;Laerm;44276;49.534;6.378;2022-12-29T04:22:06;44.33;42.35;55.53;;
56099;Laerm;44276;49.534;6.378;2022-12-29T04:24:36;43.72;42.41;47.34;;
56099;Laerm;44276;49.534;6.378;2022-12-29T04:27:04;44.13;42.22;58.74;;
56099;Laerm;44276;49.534;6.378;2022-12-29T04:29:32;44.27;42.35;54.47;;
56099;Laerm;44276;49.534;6.378;2022-12-29T04:32:00;44.68;42.16;55.16;;
56099;Laerm;44276;49.534;6.378;2022-12-29T04:34:29;44.12;42.29;51.54;;
56099;Laerm;44276;49.534;6.378;2022-12-29T04:36:59;43.85;42.09;50.77;;
56099;Laerm;44276;49.534;6.378;2022-12-29T04:39:29;44.36;42.16;54.04;;
56099;Laerm;44276;49.534;6.378;2022-12-29T04:41:59;45.03;41.96;58.29;;
56099;Laerm;44276;49.534;6.378;2022-12-29T04:44:28;44.46;41.96;58.16;;
56099;Laerm;44276;49.534;6.378;2022-12-29T04:46:56;43.73;41.96;52.40;;
56099;Laerm;44276;49.534;6.378;2022-12-29T04:49:25;44.97;42.09;56.15;;
56099;Laerm;44276;49.534;6.378;2022-12-29T04:51:54;44.79;41.96;58.28;;
56099;Laerm;44276;49.534;6.378;2022-12-29T04:54:22;43.77;41.96;54.60;;
56099;Laerm;44276;49.534;6.378;2022-12-29T04:56:52;46.24;41.75;61.72;;
56099;Laerm;44276;49.534;6.378;2022-12-29T04:59:23;46.45;41.89;61.39;;
56099;Laerm;44276;49.534;6.378;2022-12-29T05:01:52;43.71;41.96;52.44;;
56099;Laerm;44276;49.534;6.378;2022-12-29T05:04:23;45.77;41.75;61.09;;
56099;Laerm;44276;49.534;6.378;2022-12-29T05:06:51;48.17;41.89;64.55;;
56099;Laerm;44276;49.534;6.378;2022-12-29T05:09:20;49.79;41.82;65.29;;
56099;Laerm;44276;49.534;6.378;2022-12-29T05:11:48;46.20;41.75;59.35;;
56099;Laerm;44276;49.534;6.378;2022-12-29T05:14:17;45.61;41.61;60.28;;
56099;Laerm;44276;49.534;6.378;2022-12-29T05:16:46;46.20;41.75;58.84;;
56099;Laerm;44276;49.534;6.378;2022-12-29T05:19:14;44.49;41.68;55.49;;
56099;Laerm;44276;49.534;6.378;2022-12-29T05:21:47;47.59;41.89;63.81;;
56099;Laerm;44276;49.534;6.378;2022-12-29T05:24:15;45.04;41.53;58.03;;
56099;Laerm;44276;49.534;6.378;2022-12-29T05:26:44;44.57;41.46;57.63;;
56099;Laerm;44276;49.534;6.378;2022-12-29T05:29:12;44.34;41.46;57.91;;
56099;Laerm;44276;49.534;6.378;2022-12-29T05:31:40;44.58;41.53;58.84;;
56099;Laerm;44276;49.534;6.378;2022-12-29T05:34:11;44.51;41.61;55.07;;
56099;Laerm;44276;49.534;6.378;2022-12-29T05:36:40;45.24;41.75;58.94;;
56099;Laerm;44276;49.534;6.378;2022-12-29T05:39:08;43.58;41.82;52.71;;
56099;Laerm;44276;49.534;6.378;2022-12-29T05:41:36;43.33;41.75;53.02;;
56099;Laerm;44276;49.534;6.378;2022-12-29T05:44:04;43.66;41.68;52.94;;
56099;Laerm;44276;49.534;6.378;2022-12-29T05:46:33;44.17;41.61;55.83;;
56099;Laerm;44276;49.534;6.378;2022-12-29T05:49:01;44.06;41.75;54.25;;
56099;Laerm;44276;49.534;6.378;2022-12-29T05:51:30;43.93;41.30;56.01;;
56099;Laerm;44276;49.534;6.378;2022-12-29T05:53:59;43.40;41.53;49.55;;
56099;Laerm;44276;49.534;6.378;2022-12-29T05:56:27;44.67;41.96;56.85;;
56099;Laerm;44276;49.534;6.378;2022-12-29T05:58:55;43.53;41.82;53.20;;
56099;Laerm;44276;49.534;6.378;2022-12-29T06:01:23;44.41;41.89;56.14;;
56099;Laerm;44276;49.534;6.378;2022-12-29T06:03:51;45.19;41.89;55.86;;
56099;Laerm;44276;49.534;6.378;2022-12-29T06:06:21;44.70;41.89;58.30;;
56099;Laerm;44276;49.534;6.378;2022-12-29T06:08:50;43.94;42.09;53.71;;
56099;Laerm;44276;49.534;6.378;2022-12-29T06:11:18;44.33;42.03;54.93;;
56099;Laerm;44276;49.534;6.378;2022-12-29T06:13:47;43.85;41.75;54.85;;
56099;Laerm;44276;49.534;6.378;2022-12-29T06:16:15;44.33;41.96;53.90;;
56099;Laerm;44276;49.534;6.378;2022-12-29T06:18:43;44.93;41.96;57.37;;
56099;Laerm;44276;49.534;6.378;2022-12-29T06:21:11;44.03;41.96;53.48;;
56099;Laerm;44276;49.534;6.378;2022-12-29T06:23:40;44.03;41.96;52.29;;
56099;Laerm;44276;49.534;6.378;2022-12-29T06:26:09;43.99;42.09;53.38;;
56099;Laerm;44276;49.534;6.378;2022-12-29T06:28:37;43.35;42.09;47.72;;
56099;Laerm;44276;49.534;6.378;2022-12-29T06:31:09;43.35;41.89;46.15;;
56099;Laerm;44276;49.534;6.378;2022-12-29T06:33:38;43.86;41.82;53.92;;
56099;Laerm;44276;49.534;6.378;2022-12-29T06:36:07;43.43;42.03;49.30;;
56099;Laerm;44276;49.534;6.378;2022-12-29T06:38:35;43.67;42.03;52.15;;
56099;Laerm;44276;49.534;6.378;2022-12-29T06:41:03;43.96;42.03;55.33;;
56099;Laerm;44276;49.534;6.378;2022-12-29T06:43:33;44.21;42.03;53.19;;
56099;Laerm;44276;49.534;6.378;2022-12-29T06:46:03;44.44;42.09;54.38;;
56099;Laerm;44276;49.534;6.378;2022-12-29T06:48:32;43.88;42.03;53.58;;
56099;Laerm;44276;49.534;6.378;2022-12-29T06:51:00;43.80;42.03;50.81;;
56099;Laerm;44276;49.534;6.378;2022-12-29T06:53:28;43.43;42.16;47.70;;
56099;Laerm;44276;49.534;6.378;2022-12-29T06:55:56;43.61;42.22;49.43;;
56099;Laerm;44276;49.534;6.378;2022-12-29T06:58:24;43.51;42.03;48.16;;
56099;Laerm;44276;49.534;6.378;2022-12-29T07:00:53;43.58;42.29;48.58;;
56099;Laerm;44276;49.534;6.378;2022-12-29T07:03:22;43.61;42.03;47.93;;
56099;Laerm;44276;49.534;6.378;2022-12-29T07:05:50;43.94;42.09;52.08;;
56099;Laerm;44276;49.534;6.378;2022-12-29T07:08:18;43.50;42.29;48.46;;
56099;Laerm;44276;49.534;6.378;2022-12-29T07:10:46;43.53;41.75;46.64;;
56099;Laerm;44276;49.534;6.378;2022-12-29T07:13:14;43.41;42.29;44.51;;
56099;Laerm;44276;49.534;6.378;2022-12-29T07:15:43;43.45;42.29;44.73;;
56099;Laerm;44276;49.534;6.378;2022-12-29T07:18:12;43.65;42.16;48.87;;
56099;Laerm;44276;49.534;6.378;2022-12-29T07:20:40;43.54;42.35;48.62;;
56099;Laerm;44276;49.534;6.378;2022-12-29T07:23:08;43.51;42.29;45.86;;
56099;Laerm;44276;49.534;6.378;2022-12-29T07:25:36;43.50;42.22;45.39;;
56099;Laerm;44276;49.534;6.378;2022-12-29T07:28:04;43.52;42.35;45.72;;
56099;Laerm;44276;49.534;6.378;2022-12-29T07:30:33;43.92;42.41;48.88;;
56099;Laerm;44276;49.534;6.378;2022-12-29T07:33:01;43.65;42.35;49.28;;
56099;Laerm;44276;49.534;6.378;2022-12-29T07:35:30;43.67;42.22;47.44;;
56099;Laerm;44276;49.534;6.378;2022-12-29T07:37:59;43.69;42.35;46.89;;
56099;Laerm;44276;49.534;6.378;2022-12-29T07:40:27;43.58;42.29;45.75;;
56099;Laerm;44276;49.534;6.378;2022-12-29T07:42:55;43.65;42.41;45.83;;
56099;Laerm;44276;49.534;6.378;2022-12-29T07:45:23;43.77;42.03;47.79;;
56099;Laerm;44276;49.534;6.378;2022-12-29T07:47:51;43.74;42.47;46.18;;
56099;Laerm;44276;49.534;6.378;2022-12-29T07:50:19;43.62;42.35;46.18;;
56099;Laerm;44276;49.534;6.378;2022-12-29T07:52:49;43.60;42.53;45.51;;
56099;Laerm;44276;49.534;6.378;2022-12-29T07:55:17;43.86;42.65;47.20;;
56099;Laerm;44276;49.534;6.378;2022-12-29T07:57:45;43.68;42.53;46.13;;
56099;Laerm;44276;49.534;6.378;2022-12-29T08:00:14;43.62;42.35;44.73;;
56099;Laerm;44276;49.534;6.378;2022-12-29T08:02:42;43.63;42.41;44.90;;
56099;Laerm;44276;49.534;6.378;2022-12-29T08:05:11;43.94;42.65;48.16;;
56099;Laerm;44276;49.534;6.378;2022-12-29T08:07:39;43.93;42.47;49.79;;
56099;Laerm;44276;49.534;6.378;2022-12-29T08:10:09;43.99;42.47;47.90;;
56099;Laerm;44276;49.534;6.378;2022-12-29T08:12:38;43.80;42.53;50.17;;
56099;Laerm;44276;49.534;6.378;2022-12-29T08:15:08;45.09;42.65;60.44;;
56099;Laerm;44276;49.534;6.378;2022-12-29T08:17:37;43.78;42.53;47.70;;
56099;Laerm;44276;49.534;6.378;2022-12-29T08:20:07;43.77;42.53;47.28;;
56099;Laerm;44276;49.534;6.378;2022-12-29T08:22:36;43.74;42.35;45.89;;
56099;Laerm;44276;49.534;6.378;2022-12-29T08:25:05;43.82;42.41;50.30;;
56099;Laerm;44276;49.534;6.378;2022-12-29T08:27:34;43.77;42.35;46.40;;
56099;Laerm;44276;49.534;6.378;2022-12-29T08:30:03;43.80;42.35;47.04;;
56099;Laerm;44276;49.534;6.378;2022-12-29T08:32:31;43.81;42.59;46.20;;
56099;Laerm;44276;49.534;6.378;2022-12-29T08:35:00;43.80;42.65;46.40;;
56099;Laerm;44276;49.534;6.378;2022-12-29T08:37:28;44.50;42.71;54.29;;
56099;Laerm;44276;49.534;6.378;2022-12-29T08:39:57;43.72;42.41;44.90;;
56099;Laerm;44276;49.534;6.378;2022-12-29T08:42:26;43.80;42.65;47.10;;
56099;Laerm;44276;49.534;6.378;2022-12-29T08:44:59;43.88;42.53;48.84;;
56099;Laerm;44276;49.534;6.378;2022-12-29T08:47:28;43.94;42.53;49.78;;
56099;Laerm;44276;49.534;6.378;2022-12-29T08:49:56;44.03;42.71;53.36;;
56099;Laerm;44276;49.534;6.378;2022-12-29T08:52:24;43.81;42.65;46.62;;
56099;Laerm;44276;49.534;6.378;2022-12-29T08:54:52;43.75;42.59;44.90;;
56099;Laerm;44276;49.534;6.378;2022-12-29T08:57:20;43.91;42.76;47.30;;
56099;Laerm;44276;49.534;6.378;2022-12-29T08:59:49;43.78;42.59;44.97;;
56099;Laerm;44276;49.534;6.378;2022-12-29T09:02:19;43.80;42.65;45.69;;
56099;Laerm;44276;49.534;6.378;2022-12-29T09:04:51;43.79;42.59;45.20;;
56099;Laerm;44276;49.534;6.378;2022-12-29T09:07:19;43.78;42.65;45.66;;
56099;Laerm;44276;49.534;6.378;2022-12-29T09:09:47;43.88;42.59;47.06;;
56099;Laerm;44276;49.534;6.378;2022-12-29T09:12:17;43.80;42.59;45.11;;
56099;Laerm;44276;49.534;6.378;2022-12-29T09:14:46;43.85;42.65;46.45;;
56099;Laerm;44276;49.534;6.378;2022-12-29T09:17:15;43.81;42.53;44.89;;
56099;Laerm;44276;49.534;6.378;2022-12-29T09:20:05;43.85;42.76;46.73;;
56099;Laerm;44276;49.534;6.378;2022-12-29T09:22:35;43.85;42.53;46.23;;
56099;Laerm;44276;49.534;6.378;2022-12-29T09:25:05;43.93;42.71;47.46;;
56099;Laerm;44276;49.534;6.378;2022-12-29T09:27:34;43.85;42.71;44.87;;
56099;Laerm;44276;49.534;6.378;2022-12-29T09:30:05;43.84;42.53;45.17;;
56099;Laerm;44276;49.534;6.378;2022-12-29T09:32:35;43.86;42.59;45.60;;
56099;Laerm;44276;49.534;6.378;2022-12-29T09:35:16;43.99;42.76;47.42;;
56099;Laerm;44276;49.534;6.378;2022-12-29T09:37:46;43.89;42.76;46.59;;
56099;Laerm;44276;49.534;6.378;2022-12-29T09:40:31;43.89;42.59;45.20;;
56099;Laerm;44276;49.534;6.378;2022-12-29T09:43:37;43.89;42.53;46.15;;
56099;Laerm;44276;49.534;6.378;2022-12-29T09:46:24;44.07;42.65;51.08;;
56099;Laerm;44276;49.534;6.378;2022-12-29T09:49:06;43.88;42.41;45.54;;
56099;Laerm;44276;49.534;6.378;2022-12-29T09:51:46;43.87;42.71;45.07;;
56099;Laerm;44276;49.534;6.378;2022-12-29T09:54:37;43.90;42.47;46.28;;
56099;Laerm;44276;49.534;6.378;2022-12-29T09:57:18;43.88;42.76;45.01;;
56099;Laerm;44276;49.534;6.378;2022-12-29T09:59:55;43.87;42.65;44.97;;
56099;Laerm;44276;49.534;6.378;2022-12-29T10:02:37;43.87;42.76;45.42;;
56099;Laerm;44276;49.534;6.378;2022-12-29T10:05:35;44.04;42.59;47.61;;
56099;Laerm;44276;49.534;6.378;2022-12-29T10:08:26;43.87;42.65;44.97;;
56099;Laerm;44276;49.534;6.378;2022-12-29T10:11:08;43.97;42.76;47.04;;
56099;Laerm;44276;49.534;6.378;2022-12-29T10:13:53;44.03;42.76;60.32;;
56099;Laerm;44276;49.534;6.378;2022-12-29T10:16:35;43.94;42.59;45.86;;
56099;Laerm;44276;49.534;6.378;2022-12-29T10:19:23;43.85;42.76;44.94;;
56099;Laerm;44276;49.534;6.378;2022-12-29T10:22:13;43.85;42.71;45.42;;
56099;Laerm;44276;49.534;6.378;2022-12-29T10:24:51;43.89;42.71;47.40;;
56099;Laerm;44276;49.534;6.378;2022-12-29T10:27:21;43.82;42.53;44.90;;
56099;Laerm;44276;49.534;6.378;2022-12-29T10:29:55;43.81;42.65;44.87;;
56099;Laerm;44276;49.534;6.378;2022-12-29T10:32:32;43.80;42.58;45.48;;
56099;Laerm;44276;49.534;6.378;2022-12-29T10:35:11;43.83;42.76;46.23;;
56099;Laerm;44276;49.534;6.378;2022-12-29T10:37:49;43.85;42.53;45.83;;
56099;Laerm;44276;49.534;6.378;2022-12-29T10:40:28;44.00;42.76;47.34;;
56099;Laerm;44276;49.534;6.378;2022-12-29T10:42:59;43.81;42.59;45.27;;
56099;Laerm;44276;49.534;6.378;2022-12-29T10:45:31;43.80;42.59;45.45;;
56099;Laerm;44276;49.534;6.378;2022-12-29T10:48:04;43.92;42.65;47.98;;
56099;Laerm;44276;49.534;6.378;2022-12-29T10:50:34;44.07;42.59;52.28;;
56099;Laerm;44276;49.534;6.378;2022-12-29T10:53:19;43.82;42.71;46.89;;
56099;Laerm;44276;49.534;6.378;2022-12-29T10:55:51;43.79;42.65;46.48;;
56099;Laerm;44276;49.534;6.378;2022-12-29T10:58:21;43.85;42.59;48.28;;
56099;Laerm;44276;49.534;6.378;2022-12-29T11:00:53;44.15;42.29;52.95;;
56099;Laerm;44276;49.534;6.378;2022-12-29T11:03:58;43.72;42.22;46.52;;
56099;Laerm;44276;49.534;6.378;2022-12-29T11:06:29;43.74;42.47;50.18;;
56099;Laerm;44276;49.534;6.378;2022-12-29T11:09:01;43.74;42.47;47.88;;
56099;Laerm;44276;49.534;6.378;2022-12-29T11:11:36;43.70;42.59;47.18;;
56099;Laerm;44276;49.534;6.378;2022-12-29T11:14:13;43.77;42.53;49.38;;
56099;Laerm;44276;49.534;6.378;2022-12-29T11:16:42;43.66;42.22;45.60;;
56099;Laerm;44276;49.534;6.378;2022-12-29T11:19:22;43.60;42.22;45.99;;
56099;Laerm;44276;49.534;6.378;2022-12-29T11:21:51;43.57;42.47;44.97;;
56099;Laerm;44276;49.534;6.378;2022-12-29T11:24:23;43.65;42.29;48.67;;
56099;Laerm;44276;49.534;6.378;2022-12-29T11:27:00;43.53;42.16;44.83;;
56099;Laerm;44276;49.534;6.378;2022-12-29T11:29:38;44.06;42.22;50.15;;
56099;Laerm;44276;49.534;6.378;2022-12-29T11:32:16;43.63;42.35;47.74;;
56099;Laerm;44276;49.534;6.378;2022-12-29T11:34:52;43.48;42.35;46.10;;
56099;Laerm;44276;49.534;6.378;2022-12-29T11:37:28;43.67;42.35;48.16;;
56099;Laerm;44276;49.534;6.378;2022-12-29T11:40:01;43.50;41.89;45.54;;
56099;Laerm;44276;49.534;6.378;2022-12-29T11:42:36;43.66;41.96;48.47;;
56099;Laerm;44276;49.534;6.378;2022-12-29T11:45:09;43.49;42.22;46.71;;
56099;Laerm;44276;49.534;6.378;2022-12-29T11:47:44;43.53;41.96;49.96;;
56099;Laerm;44276;49.534;6.378;2022-12-29T11:50:20;43.55;42.35;50.49;;
56099;Laerm;44276;49.534;6.378;2022-12-29T11:52:57;43.47;41.96;47.18;;
56099;Laerm;44276;49.534;6.378;2022-12-29T11:55:27;43.56;42.16;51.89;;
56099;Laerm;44276;49.534;6.378;2022-12-29T11:58:02;44.21;42.22;55.63;;
56099;Laerm;44276;49.534;6.378;2022-12-29T12:00:34;44.07;42.09;52.16;;
56099;Laerm;44276;49.534;6.378;2022-12-29T12:03:13;44.16;42.16;52.56;;
56099;Laerm;44276;49.534;6.378;2022-12-29T12:05:47;43.81;41.68;50.98;;
56099;Laerm;44276;49.534;6.378;2022-12-29T12:08:28;44.14;41.75;53.38;;
56099;Laerm;44276;49.534;6.378;2022-12-29T12:11:08;43.47;41.82;54.61;;
56099;Laerm;44276;49.534;6.378;2022-12-29T12:13:47;43.29;41.68;47.08;;
56099;Laerm;44276;49.534;6.378;2022-12-29T12:16:27;44.06;41.75;58.36;;
56099;Laerm;44276;49.534;6.378;2022-12-29T12:19:05;43.71;41.89;51.40;;
56099;Laerm;44276;49.534;6.378;2022-12-29T12:21:41;43.34;41.75;49.36;;
56099;Laerm;44276;49.534;6.378;2022-12-29T12:24:29;43.84;41.96;53.49;;
56099;Laerm;44276;49.534;6.378;2022-12-29T12:27:12;44.18;42.09;51.67;;
56099;Laerm;44276;49.534;6.378;2022-12-29T12:29:51;43.85;42.09;47.16;;
56099;Laerm;44276;49.534;6.378;2022-12-29T12:32:27;43.88;42.09;49.58;;
56099;Laerm;44276;49.534;6.378;2022-12-29T12:35:05;43.95;42.09;52.91;;
56099;Laerm;44276;49.534;6.378;2022-12-29T12:38:00;43.22;41.46;46.25;;
56099;Laerm;44276;49.534;6.378;2022-12-29T12:40:55;43.15;41.46;48.23;;
56099;Laerm;44276;49.534;6.378;2022-12-29T12:43:48;43.14;41.75;47.74;;
56099;Laerm;44276;49.534;6.378;2022-12-29T12:47:07;43.34;41.53;49.72;;
56099;Laerm;44276;49.534;6.378;2022-12-29T12:50:19;43.67;41.22;53.70;;
56099;Laerm;44276;49.534;6.378;2022-12-29T12:53:16;43.76;41.75;51.10;;
56099;Laerm;44276;49.534;6.378;2022-12-29T12:56:08;43.47;41.61;51.49;;
56099;Laerm;44276;49.534;6.378;2022-12-29T12:58:49;44.24;41.82;54.57;;
56099;Laerm;44276;49.534;6.378;2022-12-29T13:01:37;44.19;41.68;53.23;;
56099;Laerm;44276;49.534;6.378;2022-12-29T13:04:38;43.92;41.30;52.96;;
56099;Laerm;44276;49.534;6.378;2022-12-29T13:07:28;43.69;41.53;53.38;;
56099;Laerm;44276;49.534;6.378;2022-12-29T13:10:25;44.74;41.46;60.85;;
56099;Laerm;44276;49.534;6.378;2022-12-29T13:13:22;43.47;41.38;52.16;;
56099;Laerm;44276;49.534;6.378;2022-12-29T13:16:02;43.37;41.46;54.22;;
56099;Laerm;44276;49.534;6.378;2022-12-29T13:18:52;43.09;41.46;47.48;;
56099;Laerm;44276;49.534;6.378;2022-12-29T13:21:46;43.13;41.53;47.34;;
56099;Laerm;44276;49.534;6.378;2022-12-29T13:24:44;43.31;41.53;52.41;;
56099;Laerm;44276;49.534;6.378;2022-12-29T13:27:20;44.05;41.68;55.66;;
56099;Laerm;44276;49.534;6.378;2022-12-29T13:30:01;44.75;41.53;55.41;;
56099;Laerm;44276;49.534;6.378;2022-12-29T13:32:53;43.91;41.75;55.39;;
56099;Laerm;44276;49.534;6.378;2022-12-29T13:35:48;44.05;41.61;52.90;;
56099;Laerm;44276;49.534;6.378;2022-12-29T13:38:25;43.32;41.30;51.34;;
56099;Laerm;44276;49.534;6.378;2022-12-29T13:41:03;44.85;41.89;52.83;;
56099;Laerm;44276;49.534;6.378;2022-12-29T13:43:36;46.21;42.29;55.81;;
56099;Laerm;44276;49.534;6.378;2022-12-29T13:46:11;47.43;42.71;61.28;;
56099;Laerm;44276;49.534;6.378;2022-12-29T13:48:47;45.45;42.35;54.61;;
56099;Laerm;44276;49.534;6.378;2022-12-29T13:51:18;44.38;42.47;55.20;;
56099;Laerm;44276;49.534;6.378;2022-12-29T13:54:09;44.66;42.22;50.10;;
56099;Laerm;44276;49.534;6.378;2022-12-29T13:56:48;45.40;42.59;56.19;;
56099;Laerm;44276;49.534;6.378;2022-12-29T13:59:30;43.95;41.89;50.05;;
56099;Laerm;44276;49.534;6.378;2022-12-29T14:02:19;43.51;41.46;51.40;;
56099;Laerm;44276;49.534;6.378;2022-12-29T14:04:58;43.52;41.61;55.66;;
56099;Laerm;44276;49.534;6.378;2022-12-29T14:07:28;42.99;41.38;50.37;;
56099;Laerm;44276;49.534;6.378;2022-12-29T14:09:58;43.18;41.38;51.03;;
56099;Laerm;44276;49.534;6.378;2022-12-29T14:12:33;42.90;41.53;45.94;;
56099;Laerm;44276;49.534;6.378;2022-12-29T14:15:14;42.94;41.61;46.05;;
56099;Laerm;44276;49.534;6.378;2022-12-29T14:18:10;43.04;41.38;48.36;;
56099;Laerm;44276;49.534;6.378;2022-12-29T14:20:52;42.92;41.46;50.45;;
56099;Laerm;44276;49.534;6.378;2022-12-29T14:23:36;43.06;41.61;51.23;;
56099;Laerm;44276;49.534;6.378;2022-12-29T14:26:33;43.59;41.53;53.41;;
56099;Laerm;44276;49.534;6.378;2022-12-29T14:29:45;44.24;41.53;54.24;;